Time;durP1;ratioP1;P1;durP2;ratioP2;P2;SDS_P1;SDS_P2;PMS_P1;PMS_P2;Temp;Humidity;BMP_temperature;BMP_pressure;BME280_temperature;BME280_humidity;BME280_pressure;Samples;Min_cycle;Max_cycle;Signal;HPM_P1;HPM_P2
2022/10/30 00:00:03;;;;;;;0.00;0.00;;;14.00;99.90;;;;;;5004440;28;20183;-68
2022/10/30 00:02:29;;;;;;;0.00;0.00;;;14.00;99.90;;;;;;5007925;28;20715;-67
2022/10/30 00:04:54;;;;;;;0.03;0.03;;;14.00;99.90;;;;;;4994490;28;20179;-68
2022/10/30 00:07:20;;;;;;;0.00;0.00;;;13.90;99.90;;;;;;5007880;28;20182;-67
2022/10/30 00:09:45;;;;;;;0.05;0.05;;;13.90;99.90;;;;;;5009881;28;20195;-67
2022/10/30 00:12:11;;;;;;;0.00;0.00;;;13.90;99.90;;;;;;5004275;28;20179;-67
2022/10/30 00:14:36;;;;;;;0.00;0.00;;;13.90;99.90;;;;;;5002013;28;20534;-67
2022/10/30 00:17:02;;;;;;;0.30;0.22;;;13.90;99.90;;;;;;4997309;28;20199;-67
2022/10/30 00:19:27;;;;;;;0.00;0.00;;;13.90;99.90;;;;;;5004140;28;20642;-67
2022/10/30 00:21:53;;;;;;;0.00;0.00;;;13.90;99.90;;;;;;5008568;28;20310;-67
2022/10/30 00:24:19;;;;;;;0.10;0.10;;;13.90;99.90;;;;;;4998423;28;20222;-67
2022/10/30 00:26:44;;;;;;;0.70;0.40;;;13.80;99.90;;;;;;4994830;28;20262;-67
2022/10/30 00:29:10;;;;;;;0.47;0.47;;;13.80;99.90;;;;;;5005723;28;20226;-67
2022/10/30 00:31:35;;;;;;;0.00;0.00;;;13.80;99.90;;;;;;5008843;28;20202;-68
2022/10/30 00:34:01;;;;;;;0.08;0.08;;;13.80;99.90;;;;;;5003995;28;20645;-67
2022/10/30 00:36:26;;;;;;;0.00;0.00;;;13.70;99.90;;;;;;5004118;28;20180;-68
2022/10/30 00:38:52;;;;;;;0.10;0.10;;;13.70;99.90;;;;;;5003902;28;20178;-67
2022/10/30 00:41:20;;;;;;;0.15;0.15;;;13.70;99.90;;;;;;5010042;28;20179;-67
2022/10/30 00:43:46;;;;;;;0.00;0.00;;;13.70;99.90;;;;;;5000823;28;20187;-68
2022/10/30 00:46:29;;;;;;;0.00;0.00;;;13.70;99.90;;;;;;5004963;28;20726;-68
2022/10/30 00:48:59;;;;;;;0.00;0.00;;;13.70;99.90;;;;;;4999503;28;20218;-68
2022/10/30 00:51:27;;;;;;;0.05;0.05;;;13.70;99.90;;;;;;4997721;28;20228;-68
2022/10/30 00:53:55;;;;;;;0.05;0.05;;;13.70;99.90;;;;;;5005856;28;20730;-68
2022/10/30 00:56:21;;;;;;;0.00;0.00;;;13.70;99.90;;;;;;5006725;28;20211;-68
2022/10/30 00:58:56;;;;;;;1.45;1.35;;;13.70;99.90;;;;;;5001434;28;20230;-68
2022/10/30 01:01:25;;;;;;;0.10;0.10;;;13.80;99.90;;;;;;4994842;28;20194;-68
2022/10/30 01:03:55;;;;;;;0.10;0.10;;;13.70;99.90;;;;;;4997131;28;20206;-67
2022/10/30 01:06:22;;;;;;;0.00;0.00;;;13.70;99.90;;;;;;4996905;28;20188;-68
2022/10/30 01:08:49;;;;;;;0.25;0.25;;;13.80;99.90;;;;;;5004634;28;20269;-67
2022/10/30 01:11:15;;;;;;;0.00;0.00;;;13.80;99.90;;;;;;5004964;28;20203;-68
2022/10/30 01:13:44;;;;;;;0.13;0.13;;;13.80;99.90;;;;;;5004536;28;20221;-67
2022/10/30 01:16:38;;;;;;;0.00;0.00;;;13.80;99.90;;;;;;5002314;28;20183;-67
2022/10/30 01:19:06;;;;;;;0.00;0.00;;;13.90;99.90;;;;;;5008558;28;20245;-67
2022/10/30 01:22:05;;;;;;;0.00;0.00;;;13.90;99.90;;;;;;4999571;28;20187;-68
2022/10/30 01:24:50;;;;;;;0.00;0.00;;;13.90;99.90;;;;;;5000610;28;20193;-68
2022/10/30 01:27:36;;;;;;;0.00;0.00;;;13.90;99.90;;;;;;5010415;28;20190;-68
2022/10/30 01:30:31;;;;;;;0.10;0.10;;;13.90;99.90;;;;;;4995800;28;20696;-68
2022/10/30 01:33:13;;;;;;;0.00;0.00;;;13.80;99.90;;;;;;5005820;28;20233;-67
2022/10/30 01:35:59;;;;;;;0.00;0.00;;;13.80;99.90;;;;;;5011269;28;20270;-67
2022/10/30 01:38:46;;;;;;;0.15;0.15;;;13.80;99.90;;;;;;4998274;28;20219;-67
2022/10/30 01:41:11;;;;;;;0.00;0.00;;;13.80;99.90;;;;;;5002859;28;20545;-67
2022/10/30 01:43:38;;;;;;;0.32;0.32;;;13.80;99.90;;;;;;4997752;28;20238;-67
2022/10/30 01:46:28;;;;;;;0.22;0.22;;;13.70;99.90;;;;;;5006024;28;20190;-67
2022/10/30 01:49:12;;;;;;;0.43;0.30;;;13.70;99.90;;;;;;5002393;28;20368;-68
2022/10/30 01:51:41;;;;;;;0.00;0.00;;;13.70;99.90;;;;;;5007567;28;20191;-67
2022/10/30 01:54:37;;;;;;;0.00;0.00;;;13.70;99.90;;;;;;5010705;28;20691;-67
2022/10/30 01:57:07;;;;;;;0.00;0.00;;;13.60;99.90;;;;;;5003781;28;20186;-67
2022/10/30 01:59:58;;;;;;;0.00;0.00;;;13.60;99.90;;;;;;4999057;28;20179;-67
2022/10/30 02:02:23;;;;;;;0.00;0.00;;;13.70;99.90;;;;;;5010354;28;20266;-67
2022/10/30 02:04:49;;;;;;;0.08;0.08;;;13.60;99.90;;;;;;5006616;28;20258;-67
2022/10/30 02:07:15;;;;;;;0.00;0.00;;;13.60;99.90;;;;;;5005056;28;20206;-67
2022/10/30 02:09:41;;;;;;;0.00;0.00;;;13.60;99.90;;;;;;5007512;28;20218;-68
2022/10/30 02:12:08;;;;;;;0.00;0.00;;;13.60;99.90;;;;;;5010869;28;20648;-67
2022/10/30 02:14:38;;;;;;;1.45;0.52;;;13.60;99.90;;;;;;5002271;28;20179;-67
2022/10/30 02:17:07;;;;;;;0.00;0.00;;;13.60;99.90;;;;;;5005136;28;20200;-67
2022/10/30 02:19:33;;;;;;;0.00;0.00;;;13.60;99.90;;;;;;4996650;28;20223;-68
2022/10/30 02:21:58;;;;;;;0.00;0.00;;;13.60;99.90;;;;;;4998401;28;20226;-68
2022/10/30 02:24:24;;;;;;;0.00;0.00;;;13.60;99.90;;;;;;5008384;28;20278;-67
2022/10/30 02:26:49;;;;;;;0.10;0.10;;;13.60;99.90;;;;;;5000642;28;20234;-67
2022/10/30 02:29:19;;;;;;;0.32;0.30;;;13.50;99.90;;;;;;5005724;28;20234;-67
2022/10/30 02:31:45;;;;;;;0.00;0.00;;;13.50;99.90;;;;;;4999108;28;20184;-67
2022/10/30 02:34:10;;;;;;;0.20;0.20;;;13.50;99.90;;;;;;5005320;28;20192;-67
2022/10/30 02:36:36;;;;;;;0.20;0.20;;;13.50;99.90;;;;;;5007584;28;20179;-67
2022/10/30 02:39:02;;;;;;;0.40;0.40;;;13.40;99.90;;;;;;5002655;28;20535;-67
2022/10/30 02:41:28;;;;;;;0.00;0.00;;;13.50;99.90;;;;;;5006796;28;20197;-68
2022/10/30 02:43:53;;;;;;;0.55;0.55;;;13.40;99.90;;;;;;5008017;28;21430;-68
2022/10/30 02:46:19;;;;;;;0.10;0.10;;;13.40;99.90;;;;;;4999141;28;20186;-68
2022/10/30 02:48:45;;;;;;;0.10;0.10;;;13.40;99.90;;;;;;5000885;28;20242;-67
2022/10/30 02:51:11;;;;;;;0.47;0.38;;;13.40;99.90;;;;;;5012850;28;20221;-67
2022/10/30 02:53:36;;;;;;;0.10;0.10;;;13.30;99.90;;;;;;5012095;28;20187;-67
2022/10/30 02:56:07;;;;;;;0.17;0.17;;;13.30;99.90;;;;;;5009229;28;20178;-67
2022/10/30 02:58:33;;;;;;;0.20;0.20;;;13.30;99.90;;;;;;4999812;28;20531;-67
2022/10/30 03:01:16;;;;;;;0.17;0.17;;;13.30;99.90;;;;;;5002389;28;20187;-67
2022/10/30 03:03:42;;;;;;;0.00;0.00;;;13.30;99.90;;;;;;5001762;28;20274;-68
2022/10/30 03:06:11;;;;;;;0.00;0.00;;;13.20;99.90;;;;;;5005004;28;20693;-68
2022/10/30 03:08:37;;;;;;;0.05;0.05;;;13.20;99.90;;;;;;5015705;28;20215;-67
2022/10/30 03:11:07;;;;;;;0.00;0.00;;;13.20;99.90;;;;;;5012413;28;20171;-67
2022/10/30 03:13:34;;;;;;;0.00;0.00;;;13.20;99.90;;;;;;4994950;28;20187;-68
2022/10/30 03:16:05;;;;;;;0.30;0.30;;;13.20;99.90;;;;;;5009685;28;20219;-68
2022/10/30 03:18:32;;;;;;;0.00;0.00;;;13.10;99.90;;;;;;5000686;28;20178;-67
2022/10/30 03:21:00;;;;;;;0.08;0.08;;;13.10;99.90;;;;;;5012826;28;20194;-68
2022/10/30 03:23:27;;;;;;;0.17;0.17;;;13.00;99.90;;;;;;5002013;28;20195;-68
2022/10/30 03:25:54;;;;;;;0.00;0.00;;;12.90;99.90;;;;;;5005263;28;20281;-68
2022/10/30 03:28:22;;;;;;;0.10;0.10;;;12.90;99.90;;;;;;5001177;28;20210;-68
2022/10/30 03:30:48;;;;;;;0.10;0.10;;;12.90;99.90;;;;;;5012283;28;20227;-68
2022/10/30 03:33:14;;;;;;;0.10;0.10;;;12.90;99.90;;;;;;4994602;28;20195;-68
2022/10/30 03:35:39;;;;;;;0.00;0.00;;;12.80;99.90;;;;;;5005374;28;20182;-67
2022/10/30 03:38:05;;;;;;;0.00;0.00;;;12.80;99.90;;;;;;5010104;28;20213;-68
2022/10/30 03:40:30;;;;;;;0.20;0.20;;;12.80;99.90;;;;;;4993189;28;20175;-68
2022/10/30 03:42:56;;;;;;;0.00;0.00;;;12.80;99.90;;;;;;5004993;28;20187;-68
2022/10/30 03:45:21;;;;;;;0.00;0.00;;;12.80;99.90;;;;;;5010416;28;20213;-68
2022/10/30 03:47:47;;;;;;;0.00;0.00;;;12.70;99.90;;;;;;4993053;28;20207;-68
2022/10/30 03:50:12;;;;;;;0.00;0.00;;;12.70;99.90;;;;;;5001483;28;20197;-68
2022/10/30 03:52:38;;;;;;;0.00;0.00;;;12.70;99.90;;;;;;5009672;28;20214;-68
2022/10/30 03:55:04;;;;;;;0.03;0.03;;;12.70;99.90;;;;;;4993020;28;20190;-68
2022/10/30 03:57:29;;;;;;;0.10;0.10;;;12.60;99.90;;;;;;5003895;28;20179;-68
2022/10/30 03:59:55;;;;;;;0.45;0.45;;;12.60;99.90;;;;;;5011086;28;20634;-68
2022/10/30 04:02:20;;;;;;;2.95;0.80;;;12.60;99.90;;;;;;4992866;28;20179;-68
2022/10/30 04:04:46;;;;;;;1.02;0.90;;;12.50;99.90;;;;;;5003362;28;20201;-68
2022/10/30 04:07:11;;;;;;;0.00;0.00;;;12.50;99.90;;;;;;5011470;28;20178;-68
2022/10/30 04:09:37;;;;;;;0.00;0.00;;;12.50;99.90;;;;;;4992782;28;20221;-68
2022/10/30 04:12:03;;;;;;;0.08;0.08;;;12.50;99.90;;;;;;5002897;28;20202;-67
2022/10/30 04:14:29;;;;;;;0.10;0.10;;;12.40;99.90;;;;;;5011706;28;20185;-67
2022/10/30 04:16:54;;;;;;;0.20;0.20;;;12.40;99.90;;;;;;5011484;28;20187;-68
2022/10/30 04:19:20;;;;;;;0.15;0.15;;;12.40;99.90;;;;;;5001946;28;20195;-67
2022/10/30 04:21:46;;;;;;;0.00;0.00;;;12.40;99.90;;;;;;4992651;28;20289;-68
2022/10/30 04:24:14;;;;;;;0.00;0.00;;;12.30;99.90;;;;;;5000781;28;20175;-67
2022/10/30 04:26:40;;;;;;;0.25;0.25;;;12.30;99.90;;;;;;5012215;28;20649;-68
2022/10/30 04:29:05;;;;;;;0.00;0.00;;;12.30;99.90;;;;;;4993309;28;20325;-67
2022/10/30 04:31:31;;;;;;;0.00;0.00;;;12.20;99.90;;;;;;4999716;28;20290;-68
2022/10/30 04:33:58;;;;;;;0.75;0.17;;;12.20;99.90;;;;;;5012263;28;20740;-68
2022/10/30 04:36:29;;;;;;;0.00;0.00;;;12.20;99.90;;;;;;5011423;28;20274;-68
2022/10/30 04:38:54;;;;;;;0.55;0.15;;;12.20;99.90;;;;;;5011135;28;20181;-68
2022/10/30 04:41:20;;;;;;;0.00;0.00;;;12.10;99.90;;;;;;4997130;28;20262;-68
2022/10/30 04:43:48;;;;;;;0.20;0.10;;;12.10;99.90;;;;;;5003280;28;20187;-67
2022/10/30 04:46:13;;;;;;;0.20;0.20;;;12.10;99.90;;;;;;5014759;28;20174;-67
2022/10/30 04:48:39;;;;;;;0.25;0.25;;;12.10;99.90;;;;;;4998828;28;20688;-67
2022/10/30 04:51:05;;;;;;;0.00;0.00;;;12.10;99.90;;;;;;5004384;28;20592;-67
2022/10/30 04:53:30;;;;;;;0.57;0.50;;;12.10;99.90;;;;;;5015405;28;20225;-68
2022/10/30 04:55:56;;;;;;;0.13;0.13;;;12.00;99.90;;;;;;5006059;28;20186;-68
2022/10/30 04:58:21;;;;;;;0.00;0.00;;;12.00;99.90;;;;;;5011354;28;20458;-67
2022/10/30 05:00:47;;;;;;;0.10;0.10;;;11.90;99.90;;;;;;5006540;28;20193;-67
2022/10/30 05:03:23;;;;;;;0.20;0.20;;;11.90;99.90;;;;;;5014354;28;20175;-68
2022/10/30 05:05:56;;;;;;;0.38;0.17;;;11.90;99.90;;;;;;5002116;28;20214;-67
2022/10/30 05:08:21;;;;;;;0.80;0.57;;;11.90;99.90;;;;;;5000258;28;20215;-68
2022/10/30 05:10:47;;;;;;;0.85;0.55;;;11.80;99.90;;;;;;5002449;28;20190;-68
2022/10/30 05:13:12;;;;;;;0.10;0.10;;;11.80;99.90;;;;;;4996078;28;20168;-68
2022/10/30 05:15:38;;;;;;;0.00;0.00;;;11.80;99.90;;;;;;4997051;28;20179;-68
2022/10/30 05:18:04;;;;;;;0.00;0.00;;;11.80;99.90;;;;;;5005383;28;20191;-68
2022/10/30 05:20:29;;;;;;;0.30;0.30;;;11.70;99.90;;;;;;5014996;28;20178;-68
2022/10/30 05:22:56;;;;;;;0.00;0.00;;;11.70;99.90;;;;;;5003311;28;20685;-68
2022/10/30 05:25:22;;;;;;;0.00;0.00;;;11.70;99.90;;;;;;5015576;28;20186;-68
2022/10/30 05:27:48;;;;;;;0.32;0.32;;;11.70;99.90;;;;;;5012929;28;20673;-68
2022/10/30 05:30:13;;;;;;;0.10;0.10;;;11.60;99.90;;;;;;4999925;28;20231;-68
2022/10/30 05:32:39;;;;;;;0.10;0.10;;;11.60;99.90;;;;;;5010011;28;20654;-68
2022/10/30 05:35:04;;;;;;;0.10;0.10;;;11.60;99.90;;;;;;5002747;28;20205;-68
2022/10/30 05:37:30;;;;;;;0.00;0.00;;;11.60;99.90;;;;;;5003372;28;20252;-68
2022/10/30 05:39:55;;;;;;;0.00;0.00;;;11.60;99.90;;;;;;5002581;28;20190;-68
2022/10/30 05:42:21;;;;;;;0.10;0.10;;;11.50;99.90;;;;;;5008305;28;20191;-68
2022/10/30 05:44:47;;;;;;;1.77;0.88;;;11.50;99.90;;;;;;5013027;28;20190;-68
2022/10/30 05:47:12;;;;;;;1.45;1.40;;;11.50;99.90;;;;;;5007983;28;20191;-68
2022/10/30 05:49:38;;;;;;;0.80;0.80;;;11.40;99.90;;;;;;5003633;28;20219;-68
2022/10/30 05:52:03;;;;;;;0.73;0.25;;;11.40;99.90;;;;;;5006504;28;20194;-68
2022/10/30 05:54:29;;;;;;;0.03;0.03;;;11.40;99.90;;;;;;4999596;28;20291;-68
2022/10/30 05:56:56;;;;;;;0.00;0.00;;;11.30;99.90;;;;;;5006348;28;20175;-68
2022/10/30 05:59:21;;;;;;;0.00;0.00;;;11.30;99.90;;;;;;5011533;28;20240;-68
2022/10/30 06:01:47;;;;;;;0.05;0.05;;;11.30;99.90;;;;;;5003684;28;20183;-68
2022/10/30 06:04:13;;;;;;;0.00;0.00;;;11.20;99.90;;;;;;5010261;28;20202;-68
2022/10/30 06:06:38;;;;;;;0.20;0.20;;;11.20;99.90;;;;;;4998756;28;20199;-68
2022/10/30 06:09:04;;;;;;;0.22;0.22;;;11.20;99.90;;;;;;5006910;28;20214;-68
2022/10/30 06:11:29;;;;;;;0.05;0.05;;;11.20;99.90;;;;;;5004737;28;20180;-68
2022/10/30 06:13:55;;;;;;;0.00;0.00;;;11.20;99.90;;;;;;5001709;28;20230;-68
2022/10/30 06:16:21;;;;;;;0.43;0.22;;;11.10;99.90;;;;;;5009257;28;20269;-68
2022/10/30 06:18:46;;;;;;;0.03;0.03;;;11.10;99.90;;;;;;5002940;28;20654;-68
2022/10/30 06:21:12;;;;;;;0.00;0.00;;;11.10;99.90;;;;;;4994926;28;20182;-68
2022/10/30 06:23:37;;;;;;;0.20;0.20;;;11.10;99.90;;;;;;5003333;28;20187;-68
2022/10/30 06:26:03;;;;;;;0.08;0.08;;;11.10;99.90;;;;;;5009444;28;20182;-68
2022/10/30 06:28:28;;;;;;;0.00;0.00;;;11.10;99.90;;;;;;5004097;28;20215;-69
2022/10/30 06:30:54;;;;;;;0.10;0.10;;;11.10;99.90;;;;;;5004432;28;20227;-68
2022/10/30 06:33:19;;;;;;;0.00;0.00;;;11.10;99.90;;;;;;5005458;28;20194;-67
2022/10/30 06:35:48;;;;;;;0.20;0.20;;;11.10;99.90;;;;;;5008752;28;20229;-67
2022/10/30 06:38:14;;;;;;;0.00;0.00;;;11.10;99.90;;;;;;5012386;28;20211;-68
2022/10/30 06:40:40;;;;;;;0.00;0.00;;;11.10;99.90;;;;;;5006024;28;20191;-68
2022/10/30 06:43:06;;;;;;;0.22;0.22;;;11.20;99.90;;;;;;5001944;28;20186;-68
2022/10/30 06:45:32;;;;;;;0.00;0.00;;;11.20;99.90;;;;;;5005418;28;20183;-68
2022/10/30 06:48:01;;;;;;;0.10;0.10;;;11.20;99.90;;;;;;5004685;28;20202;-68
2022/10/30 06:50:26;;;;;;;0.00;0.00;;;11.30;99.90;;;;;;5000306;28;20191;-68
2022/10/30 06:52:54;;;;;;;0.00;0.00;;;11.30;99.90;;;;;;5009721;28;20708;-67
2022/10/30 06:55:20;;;;;;;0.38;0.38;;;11.40;99.90;;;;;;5005458;28;20179;-68
2022/10/30 06:57:51;;;;;;;0.35;0.35;;;11.40;99.90;;;;;;5007348;28;20183;-67
2022/10/30 07:00:17;;;;;;;0.88;0.28;;;11.40;99.90;;;;;;5004663;28;20225;-67
2022/10/30 07:02:42;;;;;;;0.00;0.00;;;11.60;99.90;;;;;;5010439;28;20186;-67
2022/10/30 07:05:08;;;;;;;0.10;0.10;;;11.70;99.90;;;;;;4998471;28;20578;-67
2022/10/30 07:07:34;;;;;;;0.00;0.00;;;11.80;99.90;;;;;;5001335;28;20193;-67
2022/10/30 07:09:59;;;;;;;0.10;0.10;;;12.00;99.90;;;;;;5008533;28;20646;-67
2022/10/30 07:12:25;;;;;;;0.00;0.00;;;12.20;99.90;;;;;;5001839;28;20258;-68
2022/10/30 07:14:50;;;;;;;0.00;0.00;;;12.70;99.90;;;;;;4996605;28;20187;-67
2022/10/30 07:17:16;;;;;;;0.00;0.00;;;13.20;99.90;;;;;;5001750;28;20192;-68
2022/10/30 07:19:41;;;;;;;0.13;0.13;;;13.80;99.90;;;;;;5009316;28;20187;-67
2022/10/30 07:22:07;;;;;;;0.00;0.00;;;14.40;99.90;;;;;;5006911;28;20178;-68
2022/10/30 07:24:32;;;;;;;0.22;0.22;;;14.90;99.90;;;;;;4993864;28;20171;-67
2022/10/30 07:26:58;;;;;;;0.00;0.00;;;15.30;99.90;;;;;;5008469;28;20542;-67
2022/10/30 07:29:23;;;;;;;0.00;0.00;;;15.60;99.90;;;;;;5007754;28;20730;-66
2022/10/30 07:31:49;;;;;;;0.08;0.03;;;15.80;99.90;;;;;;5029434;28;20197;-66
2022/10/30 07:34:15;;;;;;;0.17;0.17;;;15.90;99.90;;;;;;5021391;28;20179;-68
2022/10/30 07:36:40;;;;;;;0.00;0.00;;;15.80;99.90;;;;;;4999147;28;20271;-71
2022/10/30 07:39:06;;;;;;;0.00;0.00;;;15.70;99.90;;;;;;4996471;28;20190;-73
2022/10/30 07:41:31;;;;;;;0.00;0.00;;;15.60;99.90;;;;;;4994967;28;20218;-69
2022/10/30 07:43:57;;;;;;;0.00;0.00;;;15.70;99.90;;;;;;5007886;28;20627;-67
2022/10/30 07:46:22;;;;;;;0.00;0.00;;;15.80;99.90;;;;;;5004210;28;20266;-70
2022/10/30 07:48:48;;;;;;;0.00;0.00;;;16.00;99.90;;;;;;4993727;28;20223;-68
2022/10/30 07:51:14;;;;;;;0.00;0.00;;;16.10;99.90;;;;;;5007005;28;20182;-73
2022/10/30 07:53:39;;;;;;;0.00;0.00;;;16.20;99.90;;;;;;5000063;28;20642;-66
2022/10/30 07:56:05;;;;;;;0.00;0.00;;;16.30;99.90;;;;;;5012358;28;20183;-66
2022/10/30 07:58:31;;;;;;;0.00;0.00;;;16.40;99.90;;;;;;5001358;28;20184;-65
2022/10/30 08:00:56;;;;;;;0.00;0.00;;;16.40;99.90;;;;;;5005291;28;20205;-67
2022/10/30 08:03:22;;;;;;;0.00;0.00;;;16.40;99.90;;;;;;5012469;28;20182;-67
2022/10/30 08:05:47;;;;;;;0.00;0.00;;;16.50;99.90;;;;;;4999684;28;20178;-68
2022/10/30 08:08:13;;;;;;;0.00;0.00;;;16.50;99.90;;;;;;4992826;28;20229;-69
2022/10/30 08:10:38;;;;;;;0.00;0.00;;;16.50;99.90;;;;;;4998235;28;20559;-69
2022/10/30 08:13:04;;;;;;;0.08;0.08;;;16.50;99.90;;;;;;5013433;28;20642;-67
2022/10/30 08:15:29;;;;;;;0.00;0.00;;;16.60;99.90;;;;;;5011803;28;20248;-67
2022/10/30 08:17:55;;;;;;;0.10;0.10;;;16.70;99.90;;;;;;5012411;28;20281;-66
2022/10/30 08:20:23;;;;;;;0.00;0.00;;;16.80;99.90;;;;;;5012265;28;20213;-70
2022/10/30 08:22:56;;;;;;;0.00;0.00;;;17.00;99.90;;;;;;5012438;28;20232;-73
2022/10/30 08:25:24;;;;;;;0.00;0.00;;;17.20;99.90;;;;;;5015640;28;20209;-66
2022/10/30 08:27:56;;;;;;;0.10;0.10;;;17.30;99.90;;;;;;5012414;28;20297;-68
2022/10/30 08:30:23;;;;;;;0.00;0.00;;;17.60;99.90;;;;;;5012051;28;20230;-68
2022/10/30 08:32:48;;;;;;;0.00;0.00;;;17.80;99.90;;;;;;5012194;28;20536;-67
2022/10/30 08:35:15;;;;;;;0.63;0.55;;;17.90;99.90;;;;;;5011979;28;20175;-68
2022/10/30 08:37:41;;;;;;;0.10;0.10;;;18.10;99.90;;;;;;5012006;28;20534;-67
2022/10/30 08:40:07;;;;;;;0.25;0.22;;;18.20;99.90;;;;;;5011912;28;20211;-67
2022/10/30 08:42:33;;;;;;;0.00;0.00;;;18.30;99.90;;;;;;5012067;28;20183;-67
2022/10/30 08:44:58;;;;;;;0.40;0.40;;;18.40;99.90;;;;;;5012015;28;20189;-68
2022/10/30 08:47:24;;;;;;;0.00;0.00;;;18.50;99.90;;;;;;5011966;28;20167;-63
2022/10/30 08:49:49;;;;;;;0.00;0.00;;;18.70;99.90;;;;;;5012004;28;20214;-67
2022/10/30 08:52:15;;;;;;;0.00;0.00;;;18.80;99.90;;;;;;5012366;28;20207;-67
2022/10/30 08:54:40;;;;;;;0.00;0.00;;;18.90;99.90;;;;;;5012091;28;20214;-67
2022/10/30 08:57:06;;;;;;;0.00;0.00;;;19.10;99.90;;;;;;5012178;28;20183;-65
2022/10/30 08:59:32;;;;;;;0.03;0.03;;;19.20;99.90;;;;;;5018388;28;20201;-70
2022/10/30 09:01:57;;;;;;;0.00;0.00;;;19.30;99.90;;;;;;5021849;28;20704;-67
2022/10/30 09:04:23;;;;;;;0.00;0.00;;;19.40;99.90;;;;;;5011842;28;20206;-66
2022/10/30 09:06:48;;;;;;;0.00;0.00;;;19.40;99.90;;;;;;5011904;28;20186;-69
2022/10/30 09:09:14;;;;;;;0.00;0.00;;;19.50;99.90;;;;;;5011863;28;20221;-67
2022/10/30 09:11:39;;;;;;;0.20;0.20;;;19.60;99.90;;;;;;5011975;28;20167;-70
2022/10/30 09:14:05;;;;;;;0.00;0.00;;;19.70;99.90;;;;;;5011983;28;20171;-68
2022/10/30 09:16:30;;;;;;;0.10;0.10;;;19.70;99.90;;;;;;5003143;28;20189;-66
2022/10/30 09:18:56;;;;;;;0.00;0.00;;;19.90;99.90;;;;;;5006077;28;20198;-65
2022/10/30 09:21:22;;;;;;;0.00;0.00;;;20.00;99.90;;;;;;5006047;28;20534;-65
2022/10/30 09:23:47;;;;;;;0.22;0.22;;;20.10;99.90;;;;;;4997453;28;20192;-66
2022/10/30 09:26:13;;;;;;;0.00;0.00;;;20.20;99.90;;;;;;5008056;28;20175;-65
2022/10/30 09:28:38;;;;;;;0.68;0.47;;;20.30;99.90;;;;;;4997620;28;20218;-66
2022/10/30 09:31:04;;;;;;;0.00;0.00;;;20.30;99.90;;;;;;5006417;28;20229;-66
2022/10/30 09:33:29;;;;;;;1.02;0.20;;;20.30;99.90;;;;;;5003340;28;20545;-65
2022/10/30 09:35:56;;;;;;;0.13;0.13;;;20.40;99.90;;;;;;5011751;28;20175;-66
2022/10/30 09:38:21;;;;;;;0.00;0.00;;;20.40;99.90;;;;;;4998415;28;20257;-66
2022/10/30 09:41:25;;;;;;;0.00;0.00;;;20.50;99.90;;;;;;5013596;28;20717;-65
2022/10/30 09:44:19;;;;;;;0.00;0.00;;;20.60;99.90;;;;;;5014250;28;20178;-66
2022/10/30 09:47:13;;;;;;;0.10;0.10;;;20.70;99.90;;;;;;5011056;28;20594;-66
2022/10/30 09:49:57;;;;;;;0.13;0.13;;;20.90;99.90;;;;;;5001456;28;20297;-66
2022/10/30 09:52:56;;;;;;;0.10;0.10;;;21.00;99.90;;;;;;4996421;28;20187;-66
2022/10/30 09:55:43;;;;;;;0.00;0.00;;;21.20;99.90;;;;;;5002994;28;20277;-66
2022/10/30 09:58:20;;;;;;;0.00;0.00;;;21.30;99.90;;;;;;5009372;28;20265;-66
2022/10/30 10:00:55;;;;;;;0.00;0.00;;;21.50;99.90;;;;;;4999451;28;20186;-66
2022/10/30 10:03:40;;;;;;;0.00;0.00;;;21.70;99.90;;;;;;5006691;28;20289;-66
2022/10/30 10:06:14;;;;;;;0.08;0.08;;;21.90;99.90;;;;;;5008697;28;20186;-66
2022/10/30 10:08:45;;;;;;;0.00;0.00;;;22.00;99.90;;;;;;5011334;28;20214;-66
2022/10/30 10:11:37;;;;;;;0.08;0.08;;;22.20;99.90;;;;;;5008036;28;20544;-66
2022/10/30 10:14:08;;;;;;;0.00;0.00;;;22.40;99.90;;;;;;5008028;28;20198;-66
2022/10/30 10:16:41;;;;;;;0.00;0.00;;;22.60;99.90;;;;;;5008786;28;20175;-66
2022/10/30 10:19:18;;;;;;;0.10;0.10;;;22.70;99.90;;;;;;5008357;28;20279;-66
2022/10/30 10:21:56;;;;;;;0.00;0.00;;;22.70;99.90;;;;;;5002814;28;20191;-66
2022/10/30 10:24:25;;;;;;;0.00;0.00;;;22.80;99.90;;;;;;4997497;28;20228;-65
2022/10/30 10:27:22;;;;;;;0.10;0.10;;;22.80;99.90;;;;;;5002207;28;20182;-65
2022/10/30 10:30:03;;;;;;;0.20;0.17;;;23.00;99.90;;;;;;5012650;28;20242;-65
2022/10/30 10:32:50;;;;;;;0.05;0.05;;;23.10;99.90;;;;;;4996112;28;20195;-66
2022/10/30 10:35:40;;;;;;;0.10;0.10;;;23.20;99.90;;;;;;5007276;28;20213;-65
2022/10/30 10:38:35;;;;;;;0.00;0.00;;;23.30;99.90;;;;;;5012702;28;20197;-65
2022/10/30 10:41:09;;;;;;;0.35;0.35;;;23.30;99.90;;;;;;4999943;28;20175;-65
2022/10/30 10:44:08;;;;;;;0.13;0.13;;;23.40;99.90;;;;;;5002919;28;20724;-65
2022/10/30 10:47:17;;;;;;;0.00;0.00;;;23.50;99.90;;;;;;5003524;28;20245;-65
2022/10/30 10:50:13;;;;;;;0.00;0.00;;;23.60;99.90;;;;;;5004473;28;20709;-66
2022/10/30 10:52:42;;;;;;;0.00;0.00;;;23.70;99.90;;;;;;4997002;28;20241;-65
2022/10/30 10:55:21;;;;;;;0.00;0.00;;;23.80;99.90;;;;;;5004020;28;20540;-65
2022/10/30 10:57:48;;;;;;;0.00;0.00;;;23.90;99.90;;;;;;5007773;28;20186;-66
2022/10/30 11:00:19;;;;;;;0.20;0.20;;;24.00;99.90;;;;;;5014522;28;20525;-66
2022/10/30 11:03:08;;;;;;;0.20;0.20;;;24.10;99.90;;;;;;5016677;28;20174;-65
2022/10/30 11:05:47;;;;;;;0.03;0.03;;;24.10;99.90;;;;;;5004598;28;20526;-66
2022/10/30 11:08:30;;;;;;;0.77;0.73;;;24.20;99.90;;;;;;5018174;28;20275;-66
2022/10/30 11:10:59;;;;;;;0.10;0.10;;;24.20;99.90;;;;;;4997249;28;20233;-65
2022/10/30 11:13:33;;;;;;;0.40;0.20;;;24.30;99.90;;;;;;5005778;28;20242;-66
2022/10/30 11:16:17;;;;;;;0.00;0.00;;;24.40;99.90;;;;;;5009046;28;20178;-65
2022/10/30 11:18:45;;;;;;;0.00;0.00;;;24.50;99.90;;;;;;5016071;28;20229;-66
2022/10/30 11:21:20;;;;;;;0.00;0.00;;;24.60;99.90;;;;;;4998162;28;20533;-65
2022/10/30 11:23:47;;;;;;;0.00;0.00;;;24.60;99.90;;;;;;5015378;28;20206;-65
2022/10/30 11:26:19;;;;;;;0.10;0.10;;;24.70;99.90;;;;;;5016011;28;20182;-65
2022/10/30 11:28:53;;;;;;;0.10;0.10;;;24.80;99.90;;;;;;5001244;28;20624;-65
2022/10/30 11:31:36;;;;;;;0.15;0.10;;;24.80;99.90;;;;;;5006385;28;20241;-66
2022/10/30 11:34:17;;;;;;;0.10;0.10;;;24.80;99.90;;;;;;5005424;28;20528;-65
2022/10/30 11:36:44;;;;;;;0.00;0.00;;;24.90;99.90;;;;;;4996043;28;20191;-66
2022/10/30 11:39:16;;;;;;;0.00;0.00;;;24.90;99.90;;;;;;5007711;28;20183;-66
2022/10/30 11:41:44;;;;;;;0.00;0.00;;;24.80;99.90;;;;;;5006303;28;20194;-66
2022/10/30 11:44:10;;;;;;;0.00;0.00;;;24.70;99.90;;;;;;5000682;28;20182;-66
2022/10/30 11:46:36;;;;;;;0.00;0.00;;;24.60;99.90;;;;;;5009265;28;20189;-65
2022/10/30 11:49:02;;;;;;;0.10;0.10;;;24.50;99.90;;;;;;4996596;28;20214;-65
2022/10/30 11:51:35;;;;;;;0.00;0.00;;;24.40;99.90;;;;;;5004638;28;20241;-65
2022/10/30 11:54:02;;;;;;;0.47;0.47;;;24.40;99.90;;;;;;5000417;28;20684;-65
2022/10/30 11:56:34;;;;;;;0.00;0.00;;;24.30;99.90;;;;;;5012557;28;20214;-65
2022/10/30 11:59:02;;;;;;;0.00;0.00;;;24.20;99.90;;;;;;5012153;28;20182;-65
2022/10/30 12:01:31;;;;;;;0.08;0.08;;;24.10;99.90;;;;;;5006106;28;20183;-65
2022/10/30 12:04:21;;;;;;;0.30;0.30;;;24.10;99.90;;;;;;5003333;28;20175;-65
2022/10/30 12:06:46;;;;;;;0.00;0.00;;;24.00;99.90;;;;;;4995963;28;20270;-66
2022/10/30 12:09:20;;;;;;;0.30;0.30;;;24.00;99.90;;;;;;4996976;28;20298;-66
2022/10/30 12:11:47;;;;;;;0.10;0.10;;;23.90;99.90;;;;;;5003756;28;20198;-66
2022/10/30 12:14:25;;;;;;;0.00;0.00;;;23.90;99.90;;;;;;5005284;28;20194;-66
2022/10/30 12:16:54;;;;;;;0.15;0.15;;;23.80;99.90;;;;;;4996183;28;20258;-66
2022/10/30 12:19:22;;;;;;;0.00;0.00;;;23.80;99.90;;;;;;5007069;28;20187;-66
2022/10/30 12:21:49;;;;;;;0.00;0.00;;;23.70;99.90;;;;;;5000948;28;20187;-65
2022/10/30 12:24:31;;;;;;;0.00;0.00;;;23.70;99.90;;;;;;4996239;28;20183;-66
2022/10/30 12:27:01;;;;;;;0.00;0.00;;;23.70;99.90;;;;;;5009669;28;20237;-66
2022/10/30 12:29:39;;;;;;;0.00;0.00;;;23.80;99.90;;;;;;5010766;28;20240;-66
2022/10/30 12:32:08;;;;;;;0.47;0.47;;;23.80;99.90;;;;;;5004211;28;20229;-66
2022/10/30 12:34:44;;;;;;;0.00;0.00;;;23.80;99.90;;;;;;5008861;28;20179;-66
2022/10/30 12:37:26;;;;;;;0.30;0.30;;;23.80;99.90;;;;;;5004099;28;20187;-66
2022/10/30 12:39:54;;;;;;;0.10;0.10;;;23.90;99.90;;;;;;5012227;28;20174;-65
2022/10/30 12:42:22;;;;;;;0.00;0.00;;;23.90;99.90;;;;;;5010941;28;20332;-65
2022/10/30 12:45:15;;;;;;;0.00;0.00;;;23.90;99.90;;;;;;5012222;28;20178;-66
2022/10/30 12:47:53;;;;;;;0.15;0.15;;;23.90;99.90;;;;;;5012042;28;20538;-65
2022/10/30 12:50:25;;;;;;;0.30;0.30;;;23.90;99.90;;;;;;5012128;28;20671;-66
2022/10/30 12:52:56;;;;;;;0.00;0.00;;;24.00;99.90;;;;;;5012092;28;20178;-66
2022/10/30 12:55:40;;;;;;;0.00;0.00;;;23.90;99.90;;;;;;5010772;28;20725;-66
2022/10/30 12:58:25;;;;;;;0.28;0.28;;;23.90;99.90;;;;;;5008678;28;20646;-66
2022/10/30 13:01:25;;;;;;;0.20;0.13;;;23.90;99.90;;;;;;5005014;28;20213;-66